createdAt,value
2024-02-02T00:00:19.568Z,90.60
2024-02-02T00:02:49.467Z,91.35
2024-02-02T00:05:21.691Z,91.88
2024-02-02T00:07:52.275Z,91.91
2024-02-02T00:10:21.944Z,91.93
2024-02-02T00:12:52.188Z,93.20
2024-02-02T00:15:21.441Z,94.60
2024-02-02T00:17:51.029Z,94.10
2024-02-02T00:20:22.126Z,91.49
2024-02-02T00:22:53.987Z,92.75
2024-02-02T00:25:25.498Z,92.49
2024-02-02T00:27:55.147Z,92.49
2024-02-02T00:30:25.624Z,92.02
2024-02-02T00:32:55.296Z,94.59
2024-02-02T00:35:26.295Z,87.10
2024-02-02T00:37:56.530Z,86.13
2024-02-02T00:40:27.515Z,82.64
2024-02-02T00:42:56.805Z,80.59
2024-02-02T00:45:26.540Z,81.44
2024-02-02T00:47:56.696Z,81.18
2024-02-02T00:50:27.929Z,79.64
2024-02-02T00:52:57.336Z,81.66
2024-02-02T00:55:28.250Z,81.41
2024-02-02T00:57:57.619Z,79.61
2024-02-02T01:00:27.684Z,77.51
2024-02-02T01:02:58.024Z,76.13
2024-02-02T01:05:30.443Z,75.04
2024-02-02T01:08:00.579Z,74.56
2024-02-02T01:10:30.625Z,69.88
2024-02-02T01:13:00.418Z,64.67
2024-02-02T01:15:30.810Z,62.03
2024-02-02T01:18:00.566Z,60.02
2024-02-02T01:20:31.822Z,59.17
2024-02-02T01:23:01.421Z,60.90
2024-02-02T01:25:31.322Z,60.46
2024-02-02T01:28:01.784Z,61.92
2024-02-02T01:30:32.323Z,61.29
2024-02-02T01:33:02.101Z,62.87
2024-02-02T01:35:34.445Z,62.23
2024-02-02T01:38:04.142Z,62.74
2024-02-02T01:40:34.222Z,61.39
2024-02-02T01:43:04.931Z,61.51
2024-02-02T01:45:37.692Z,61.91
2024-02-02T01:48:10.597Z,61.38
2024-02-02T01:50:42.396Z,61.47
2024-02-02T01:53:12.400Z,61.84
2024-02-02T01:55:42.171Z,62.75
2024-02-02T01:58:11.658Z,63.57
2024-02-02T02:00:41.218Z,65.52
2024-02-02T02:03:11.089Z,65.08
2024-02-02T02:05:45.596Z,66.03
2024-02-02T02:08:15.384Z,65.72
2024-02-02T02:10:47.310Z,65.40
2024-02-02T02:13:16.964Z,64.63
2024-02-02T02:15:47.012Z,66.27
2024-02-02T02:18:16.745Z,65.73
2024-02-02T02:20:56.928Z,65.06
2024-02-02T02:23:30.347Z,65.30
2024-02-02T02:26:02.118Z,65.22
2024-02-02T02:28:31.708Z,65.27
2024-02-02T02:31:01.595Z,65.87
2024-02-02T02:33:31.281Z,66.36
2024-02-02T02:36:00.575Z,69.61
2024-02-02T02:38:31.613Z,71.76
2024-02-02T02:41:01.932Z,71.08
2024-02-02T02:43:32.375Z,70.15
2024-02-02T02:46:01.676Z,70.14
2024-02-02T02:48:31.534Z,68.35
2024-02-02T02:51:01.907Z,67.49
2024-02-02T02:53:32.942Z,66.61
2024-02-02T02:56:02.550Z,65.39
2024-02-02T02:58:32.952Z,65.39
2024-02-02T03:01:02.239Z,66.34
2024-02-02T03:03:32.448Z,67.59
2024-02-02T03:06:02.654Z,68.61
2024-02-02T03:08:33.505Z,68.92
2024-02-02T03:11:02.756Z,68.34
2024-02-02T03:13:32.013Z,68.20
2024-02-02T03:16:02.915Z,67.11
2024-02-02T03:18:32.501Z,67.30
2024-02-02T03:21:01.977Z,67.32
2024-02-02T03:23:33.277Z,67.73
2024-02-02T03:26:02.924Z,68.70
2024-02-02T03:28:32.352Z,69.36
2024-02-02T03:31:02.161Z,70.84
2024-02-02T03:33:31.588Z,72.77
2024-02-02T03:36:01.040Z,76.09
2024-02-02T03:38:30.829Z,80.12
2024-02-02T03:41:01.748Z,92.42
2024-02-02T03:43:31.252Z,93.32
2024-02-02T03:46:01.152Z,92.82
2024-02-02T03:48:31.467Z,100.00
2024-02-02T03:51:03.710Z,100.00
2024-02-02T03:53:35.652Z,100.00
2024-02-02T03:56:09.796Z,100.00
2024-02-02T03:58:40.051Z,100.00
2024-02-02T04:01:12.232Z,100.00
2024-02-02T04:03:43.742Z,100.00
2024-02-02T04:06:15.050Z,100.00
2024-02-02T04:08:46.651Z,100.00
2024-02-02T04:11:18.255Z,100.00
2024-02-02T04:13:49.061Z,100.00
2024-02-02T04:16:19.521Z,100.00
2024-02-02T04:18:51.976Z,100.00
2024-02-02T04:21:25.237Z,100.00
2024-02-02T04:23:57.303Z,100.00
2024-02-02T04:26:28.867Z,100.00
2024-02-02T04:29:00.317Z,100.00
2024-02-02T04:31:30.978Z,100.00
2024-02-02T04:34:02.112Z,100.00
2024-02-02T04:36:33.755Z,100.00
2024-02-02T04:39:04.272Z,100.00
2024-02-02T04:41:36.444Z,100.00
2024-02-02T04:44:08.114Z,100.00
2024-02-02T04:46:39.267Z,100.00
2024-02-02T04:49:10.854Z,100.00
2024-02-02T04:51:42.300Z,100.00
2024-02-02T04:54:11.857Z,100.00
2024-02-02T04:56:43.940Z,100.00
2024-02-02T04:59:13.425Z,100.00
2024-02-02T05:01:43.057Z,100.00
2024-02-02T05:04:13.266Z,100.00
2024-02-02T05:06:42.915Z,100.00
2024-02-02T05:09:13.051Z,100.00
2024-02-02T05:11:44.120Z,100.00
2024-02-02T05:14:13.710Z,100.00
2024-02-02T05:16:43.092Z,100.00
2024-02-02T05:19:12.490Z,100.00
2024-02-02T05:21:42.993Z,100.00
2024-02-02T05:24:26.259Z,100.00
2024-02-02T05:27:04.708Z,100.00
2024-02-02T05:29:34.567Z,100.00
2024-02-02T05:32:04.272Z,100.00
2024-02-02T05:34:34.802Z,100.00
2024-02-02T05:37:04.786Z,100.00
2024-02-02T05:39:34.188Z,100.00
2024-02-02T05:42:05.767Z,100.00
2024-02-02T05:44:35.569Z,100.00
2024-02-02T05:47:05.372Z,100.00
2024-02-02T05:49:34.705Z,100.00
2024-02-02T05:52:04.370Z,100.00
2024-02-02T05:54:37.085Z,100.00
2024-02-02T05:57:08.405Z,100.00
2024-02-02T05:59:38.262Z,100.00
2024-02-02T06:02:07.800Z,100.00
2024-02-02T06:04:37.448Z,100.00
2024-02-02T06:07:07.512Z,100.00
2024-02-02T06:09:37.773Z,100.00
2024-02-02T06:12:09.726Z,100.00
2024-02-02T06:14:40.767Z,100.00
2024-02-02T06:17:11.710Z,100.00
2024-02-02T06:19:41.438Z,100.00
2024-02-02T06:22:11.522Z,100.00
2024-02-02T06:24:41.310Z,100.00
2024-02-02T06:27:12.314Z,100.00
2024-02-02T06:29:41.741Z,100.00
2024-02-02T06:32:11.568Z,100.00
2024-02-02T06:34:41.382Z,100.00
2024-02-02T06:37:10.695Z,100.00
2024-02-02T06:39:40.790Z,100.00
2024-02-02T06:42:12.434Z,100.00
2024-02-02T06:44:41.854Z,100.00
2024-02-02T06:47:11.131Z,100.00
2024-02-02T06:49:40.636Z,100.00
2024-02-02T06:52:10.199Z,100.00
2024-02-02T06:54:41.157Z,100.00
2024-02-02T06:57:14.348Z,100.00
2024-02-02T06:59:45.485Z,100.00
2024-02-02T07:02:21.842Z,100.00
2024-02-02T07:04:51.872Z,100.00
2024-02-02T07:07:21.514Z,100.00
2024-02-02T07:09:53.926Z,100.00
2024-02-02T07:12:57.753Z,100.00
2024-02-02T07:15:30.389Z,100.00
2024-02-02T07:18:00.866Z,100.00
2024-02-02T07:21:06.014Z,100.00
2024-02-02T07:23:38.853Z,100.00
2024-02-02T07:26:15.599Z,100.00
2024-02-02T07:28:46.640Z,100.00
2024-02-02T07:31:33.628Z,100.00
2024-02-02T07:34:10.262Z,100.00
2024-02-02T07:36:40.303Z,100.00
2024-02-02T07:39:24.355Z,100.00
2024-02-02T07:41:54.048Z,100.00
2024-02-02T07:44:25.413Z,100.00
2024-02-02T07:46:55.452Z,100.00
2024-02-02T07:49:26.068Z,100.00
2024-02-02T07:51:55.674Z,100.00
2024-02-02T07:54:25.797Z,100.00
2024-02-02T07:56:55.500Z,100.00
2024-02-02T07:59:27.907Z,100.00
2024-02-02T08:01:57.261Z,100.00
2024-02-02T08:04:27.347Z,100.00
2024-02-02T08:06:58.983Z,100.00
2024-02-02T08:09:29.374Z,100.00
2024-02-02T08:11:59.078Z,100.00
2024-02-02T08:14:31.045Z,100.00
2024-02-02T08:17:00.458Z,100.00
2024-02-02T08:19:30.874Z,100.00
2024-02-02T08:22:00.746Z,100.00
2024-02-02T08:24:30.406Z,100.00
2024-02-02T08:27:00.226Z,100.00
2024-02-02T08:29:31.948Z,100.00
2024-02-02T08:32:01.818Z,100.00
2024-02-02T08:34:32.052Z,100.00
2024-02-02T08:37:03.455Z,100.00
2024-02-02T08:39:36.771Z,100.00
2024-02-02T08:42:12.736Z,100.00
2024-02-02T08:44:44.672Z,100.00
2024-02-02T08:47:14.125Z,100.00
2024-02-02T08:49:57.431Z,100.00
2024-02-02T08:52:34.587Z,100.00
2024-02-02T08:55:08.094Z,100.00
2024-02-02T08:57:40.392Z,100.00
2024-02-02T09:00:41.207Z,100.00
2024-02-02T09:03:36.837Z,100.00
2024-02-02T09:06:09.488Z,100.00
2024-02-02T09:08:42.036Z,100.00
2024-02-02T09:11:21.934Z,100.00
2024-02-02T09:14:02.786Z,100.00
2024-02-02T09:16:42.153Z,100.00
2024-02-02T09:19:27.873Z,100.00
2024-02-02T09:21:59.366Z,100.00
2024-02-02T09:24:48.509Z,100.00
2024-02-02T09:27:29.610Z,100.00
2024-02-02T09:29:59.622Z,100.00
2024-02-02T09:32:33.138Z,100.00
2024-02-02T09:35:04.334Z,100.00
2024-02-02T09:37:45.884Z,100.00
2024-02-02T09:40:55.516Z,100.00
2024-02-02T09:43:34.996Z,100.00
2024-02-02T09:46:15.509Z,100.00
2024-02-02T09:49:01.465Z,100.00
2024-02-02T09:51:42.122Z,100.00
2024-02-02T09:54:30.068Z,100.00
2024-02-02T09:57:10.284Z,100.00
2024-02-02T09:59:52.740Z,100.00
2024-02-02T10:02:57.452Z,100.00
2024-02-02T10:05:38.080Z,100.00
2024-02-02T10:08:23.306Z,100.00
2024-02-02T10:11:09.577Z,100.00
2024-02-02T10:13:55.717Z,100.00
2024-02-02T10:16:41.180Z,100.00
2024-02-02T10:19:45.952Z,100.00
2024-02-02T10:22:40.402Z,100.00
2024-02-02T10:25:31.636Z,100.00
2024-02-02T10:28:17.214Z,100.00
2024-02-02T10:31:04.244Z,100.00
2024-02-02T10:33:46.310Z,100.00
2024-02-02T10:36:26.771Z,100.00
2024-02-02T10:39:14.304Z,100.00
2024-02-02T10:42:02.390Z,100.00
2024-02-02T10:44:45.629Z,100.00
2024-02-02T10:47:30.511Z,100.00
2024-02-02T10:50:16.412Z,100.00
2024-02-02T10:52:58.718Z,100.00
2024-02-02T10:55:46.035Z,100.00
2024-02-02T10:58:26.842Z,100.00
2024-02-02T11:01:07.423Z,100.00
2024-02-02T11:03:40.016Z,100.00
2024-02-02T11:06:26.474Z,100.00
2024-02-02T11:09:04.550Z,100.00
2024-02-02T11:11:38.787Z,100.00
2024-02-02T11:14:21.558Z,100.00
2024-02-02T11:17:01.059Z,100.00
2024-02-02T11:19:51.529Z,100.00
2024-02-02T11:22:28.405Z,100.00
2024-02-02T11:25:08.585Z,100.00
2024-02-02T11:27:50.147Z,100.00
2024-02-02T11:30:34.648Z,100.00
2024-02-02T11:33:30.099Z,100.00
2024-02-02T11:36:10.294Z,100.00
2024-02-02T11:38:53.014Z,100.00
2024-02-02T11:41:22.797Z,100.00
2024-02-02T11:43:54.823Z,100.00
2024-02-02T11:46:29.630Z,100.00
2024-02-02T11:49:13.333Z,100.00
2024-02-02T11:51:51.230Z,100.00
2024-02-02T11:54:28.432Z,100.00
2024-02-02T11:57:03.287Z,100.00
2024-02-02T11:59:36.364Z,100.00
2024-02-02T12:02:23.740Z,100.00
2024-02-02T12:04:59.681Z,100.00
2024-02-02T12:07:44.662Z,100.00
2024-02-02T12:10:22.246Z,100.00
2024-02-02T12:13:01.354Z,100.00
2024-02-02T12:15:32.772Z,100.00
2024-02-02T12:18:04.357Z,100.00
2024-02-02T12:20:35.420Z,100.00
2024-02-02T12:23:07.121Z,100.00
2024-02-02T12:25:37.378Z,100.00
2024-02-02T12:28:07.834Z,100.00
2024-02-02T12:30:42.626Z,100.00
2024-02-02T12:33:14.896Z,100.00
2024-02-02T12:35:47.986Z,100.00
2024-02-02T12:38:22.092Z,100.00
2024-02-02T12:40:53.560Z,100.00
2024-02-02T12:43:27.337Z,100.00
2024-02-02T12:45:58.489Z,100.00
2024-02-02T12:48:28.723Z,100.00
2024-02-02T12:50:58.363Z,100.00
2024-02-02T12:53:28.380Z,100.00
2024-02-02T12:55:58.092Z,100.00
2024-02-02T12:58:29.598Z,100.00
2024-02-02T13:01:00.483Z,100.00
2024-02-02T13:03:40.942Z,100.00
2024-02-02T13:06:16.568Z,100.00
2024-02-02T13:08:48.062Z,100.00
2024-02-02T13:11:26.832Z,100.00
2024-02-02T13:14:07.900Z,100.00
2024-02-02T13:16:39.527Z,100.00
2024-02-02T13:19:40.545Z,100.00
2024-02-02T13:22:21.088Z,100.00
2024-02-02T13:24:55.221Z,100.00
2024-02-02T13:27:32.293Z,100.00
2024-02-02T13:30:04.669Z,100.00
2024-02-02T13:32:39.821Z,100.00
2024-02-02T13:35:10.901Z,100.00
2024-02-02T13:37:45.086Z,100.00
2024-02-02T13:40:15.174Z,100.00
2024-02-02T13:42:47.707Z,100.00
2024-02-02T13:45:18.741Z,100.00
2024-02-02T13:47:57.756Z,100.00
2024-02-02T13:50:40.244Z,100.00
2024-02-02T13:53:11.154Z,100.00
2024-02-02T13:55:43.233Z,100.00
2024-02-02T13:58:16.577Z,100.00
2024-02-02T14:00:47.683Z,100.00
2024-02-02T14:03:22.835Z,100.00
2024-02-02T14:05:53.364Z,100.00
2024-02-02T14:08:23.108Z,100.00
2024-02-02T14:10:53.015Z,100.00
2024-02-02T14:13:22.708Z,100.00
2024-02-02T14:15:57.082Z,100.00
2024-02-02T14:18:28.278Z,100.00
2024-02-02T14:20:58.764Z,100.00
2024-02-02T14:23:28.903Z,100.00
2024-02-02T14:26:08.745Z,100.00
2024-02-02T14:28:41.765Z,100.00
2024-02-02T14:31:11.801Z,100.00
2024-02-02T14:33:44.480Z,100.00
2024-02-02T14:36:16.067Z,100.00
2024-02-02T14:38:46.775Z,100.00
2024-02-02T14:41:17.486Z,100.00
2024-02-02T14:43:47.038Z,100.00
2024-02-02T14:46:22.046Z,100.00
2024-02-02T14:48:53.249Z,100.00
2024-02-02T14:51:22.863Z,100.00
2024-02-02T14:53:53.328Z,100.00
2024-02-02T14:56:23.397Z,100.00
2024-02-02T14:58:54.441Z,100.00
2024-02-02T15:01:29.602Z,100.00
2024-02-02T15:04:01.743Z,100.00
2024-02-02T15:06:31.597Z,100.00
2024-02-02T15:09:07.241Z,100.00
2024-02-02T15:11:36.986Z,100.00
2024-02-02T15:14:06.848Z,100.00
2024-02-02T15:16:36.109Z,100.00
2024-02-02T15:19:07.362Z,100.00
2024-02-02T15:21:37.424Z,100.00
2024-02-02T15:24:08.511Z,100.00
2024-02-02T15:26:40.669Z,100.00
2024-02-02T15:29:10.680Z,100.00
2024-02-02T15:31:40.884Z,100.00
2024-02-02T15:34:12.792Z,100.00
2024-02-02T15:36:42.995Z,100.00
2024-02-02T15:39:23.601Z,100.00
2024-02-02T15:42:00.258Z,100.00
2024-02-02T15:44:30.270Z,100.00
2024-02-02T15:47:01.212Z,100.00
2024-02-02T15:49:32.410Z,100.00
2024-02-02T15:52:01.959Z,100.00
2024-02-02T15:54:32.764Z,100.00
2024-02-02T15:57:02.562Z,100.00
2024-02-02T15:59:32.367Z,100.00
2024-02-02T16:02:01.848Z,100.00
2024-02-02T16:04:33.934Z,100.00
2024-02-02T16:07:06.466Z,100.00
2024-02-02T16:09:39.583Z,100.00
2024-02-02T16:12:11.534Z,100.00
2024-02-02T16:14:42.748Z,100.00
2024-02-02T16:17:12.472Z,100.00
2024-02-02T16:19:43.673Z,100.00
2024-02-02T16:22:13.235Z,100.00
2024-02-02T16:24:42.497Z,100.00
2024-02-02T16:27:12.209Z,100.00
2024-02-02T16:29:42.669Z,100.00
2024-02-02T16:32:12.020Z,100.00
2024-02-02T16:34:43.869Z,100.00
2024-02-02T16:37:13.426Z,100.00
2024-02-02T16:39:43.192Z,100.00
2024-02-02T16:42:14.267Z,100.00
2024-02-02T16:44:44.049Z,100.00
2024-02-02T16:47:14.545Z,100.00
2024-02-02T16:49:48.307Z,100.00
2024-02-02T16:52:18.298Z,100.00
2024-02-02T16:54:48.995Z,100.00
2024-02-02T16:57:18.761Z,100.00
2024-02-02T16:59:49.295Z,100.00
2024-02-02T17:02:19.146Z,100.00
2024-02-02T17:04:50.346Z,100.00
2024-02-02T17:07:20.495Z,100.00
2024-02-02T17:09:50.612Z,100.00
2024-02-02T17:12:22.037Z,100.00
2024-02-02T17:14:53.104Z,100.00
2024-02-02T17:17:22.569Z,100.00
2024-02-02T17:19:54.533Z,100.00
2024-02-02T17:22:24.770Z,100.00
2024-02-02T17:24:55.130Z,100.00
2024-02-02T17:27:25.745Z,100.00
2024-02-02T17:29:55.763Z,100.00
2024-02-02T17:32:25.844Z,100.00
2024-02-02T17:34:58.370Z,100.00
2024-02-02T17:37:28.414Z,100.00
2024-02-02T17:39:59.145Z,100.00
2024-02-02T17:42:29.685Z,100.00
2024-02-02T17:45:01.544Z,100.00
2024-02-02T17:47:33.578Z,100.00
2024-02-02T17:50:06.874Z,100.00
2024-02-02T17:52:36.447Z,100.00
2024-02-02T17:55:06.818Z,100.00
2024-02-02T17:57:37.230Z,100.00
2024-02-02T18:00:08.167Z,100.00
2024-02-02T18:02:41.748Z,100.00
2024-02-02T18:05:13.184Z,100.00
2024-02-02T18:07:47.921Z,100.00
2024-02-02T18:10:18.459Z,100.00
2024-02-02T18:12:49.590Z,100.00
2024-02-02T18:15:20.032Z,100.00
2024-02-02T18:17:50.132Z,100.00
2024-02-02T18:20:24.473Z,100.00
2024-02-02T18:22:54.609Z,100.00
2024-02-02T18:25:26.708Z,100.00
2024-02-02T18:27:56.672Z,100.00
2024-02-02T18:30:27.454Z,100.00
2024-02-02T18:32:57.487Z,100.00
2024-02-02T18:35:29.122Z,100.00
2024-02-02T18:38:00.209Z,100.00
2024-02-02T18:40:29.944Z,100.00
2024-02-02T18:43:00.116Z,100.00
2024-02-02T18:45:29.424Z,100.00
2024-02-02T18:47:59.430Z,100.00
2024-02-02T18:50:32.600Z,100.00
2024-02-02T18:53:01.920Z,100.00
2024-02-02T18:55:32.244Z,100.00
2024-02-02T18:58:01.680Z,100.00
2024-02-02T19:00:32.320Z,100.00
2024-02-02T19:03:02.047Z,100.00
2024-02-02T19:05:36.165Z,100.00
2024-02-02T19:08:06.122Z,100.00
2024-02-02T19:10:35.582Z,100.00
2024-02-02T19:13:05.929Z,100.00
2024-02-02T19:15:35.298Z,100.00
2024-02-02T19:18:04.985Z,100.00
2024-02-02T19:20:40.271Z,100.00
2024-02-02T19:23:09.664Z,100.00
2024-02-02T19:25:39.364Z,100.00
2024-02-02T19:28:09.655Z,100.00
2024-02-02T19:30:39.442Z,100.00
2024-02-02T19:33:09.132Z,100.00
2024-02-02T19:35:40.495Z,100.00
2024-02-02T19:38:10.486Z,100.00
2024-02-02T19:40:41.292Z,100.00
2024-02-02T19:43:10.678Z,100.00
2024-02-02T19:45:42.064Z,100.00
2024-02-02T19:48:11.933Z,100.00
2024-02-02T19:50:43.315Z,100.00
2024-02-02T19:53:16.212Z,100.00
2024-02-02T19:55:45.946Z,100.00
2024-02-02T19:58:16.629Z,100.00
2024-02-02T20:00:47.229Z,100.00
2024-02-02T20:03:17.396Z,100.00
2024-02-02T20:05:48.312Z,100.00
2024-02-02T20:08:17.875Z,100.00
2024-02-02T20:10:47.649Z,100.00
2024-02-02T20:13:17.716Z,100.00
2024-02-02T20:15:47.588Z,100.00
2024-02-02T20:18:18.855Z,100.00
2024-02-02T20:20:54.988Z,100.00
2024-02-02T20:23:24.262Z,100.00
2024-02-02T20:25:55.330Z,100.00
2024-02-02T20:28:25.121Z,100.00
2024-02-02T20:30:54.568Z,100.00
2024-02-02T20:33:23.873Z,100.00
2024-02-02T20:35:55.300Z,100.00
2024-02-02T20:38:25.052Z,100.00
2024-02-02T20:40:54.566Z,100.00
2024-02-02T20:43:24.023Z,100.00
2024-02-02T20:45:53.764Z,100.00
2024-02-02T20:48:25.096Z,100.00
2024-02-02T20:50:56.325Z,100.00
2024-02-02T20:53:25.870Z,100.00
2024-02-02T20:55:55.190Z,100.00
2024-02-02T20:58:25.405Z,100.00
2024-02-02T21:00:55.783Z,100.00
2024-02-02T21:03:26.198Z,100.00
2024-02-02T21:06:00.110Z,100.00
2024-02-02T21:08:30.101Z,100.00
2024-02-02T21:10:59.279Z,100.00
2024-02-02T21:13:29.595Z,100.00
2024-02-02T21:15:59.767Z,100.00
2024-02-02T21:18:29.353Z,100.00
2024-02-02T21:21:01.295Z,100.00
2024-02-02T21:23:30.917Z,100.00
2024-02-02T21:26:00.740Z,100.00
2024-02-02T21:28:30.111Z,100.00
2024-02-02T21:31:00.216Z,100.00
2024-02-02T21:33:30.045Z,100.00
2024-02-02T21:36:04.548Z,100.00
2024-02-02T21:38:34.496Z,100.00
2024-02-02T21:41:04.620Z,100.00
2024-02-02T21:43:34.253Z,100.00
2024-02-02T21:46:04.367Z,100.00
2024-02-02T21:48:35.420Z,100.00
2024-02-02T21:51:09.739Z,100.00
2024-02-02T21:53:39.440Z,100.00
2024-02-02T21:56:09.631Z,100.00
2024-02-02T21:58:38.885Z,100.00
2024-02-02T22:01:08.453Z,100.00
2024-02-02T22:03:40.808Z,100.00
2024-02-02T22:06:12.394Z,100.00
2024-02-02T22:08:41.817Z,100.00
2024-02-02T22:11:14.791Z,100.00
2024-02-02T22:13:48.987Z,100.00
2024-02-02T22:16:18.473Z,100.00
2024-02-02T22:18:50.307Z,100.00
2024-02-02T22:21:26.437Z,100.00
2024-02-02T22:23:56.147Z,100.00
2024-02-02T22:26:25.625Z,100.00
2024-02-02T22:28:55.410Z,100.00
2024-02-02T22:31:24.883Z,100.00
2024-02-02T22:33:55.089Z,100.00
2024-02-02T22:36:26.665Z,100.00
2024-02-02T22:38:56.380Z,100.00
2024-02-02T22:41:33.609Z,100.00
2024-02-02T22:44:05.078Z,100.00
2024-02-02T22:46:34.775Z,100.00
2024-02-02T22:49:05.416Z,100.00
2024-02-02T22:51:37.015Z,100.00
2024-02-02T22:54:07.012Z,100.00
2024-02-02T22:56:36.333Z,100.00
2024-02-02T22:59:06.135Z,100.00
2024-02-02T23:01:35.799Z,100.00
2024-02-02T23:04:05.519Z,100.00
2024-02-02T23:06:36.702Z,100.00
2024-02-02T23:09:06.292Z,100.00
2024-02-02T23:11:35.997Z,100.00
2024-02-02T23:14:05.602Z,100.00
2024-02-02T23:16:34.979Z,100.00
2024-02-02T23:19:04.505Z,100.00
2024-02-02T23:21:35.523Z,100.00
2024-02-02T23:24:06.745Z,100.00
2024-02-02T23:26:37.116Z,100.00
2024-02-02T23:29:07.928Z,100.00
2024-02-02T23:31:37.605Z,100.00
2024-02-02T23:34:07.065Z,100.00
2024-02-02T23:36:36.801Z,100.00
2024-02-02T23:39:07.864Z,100.00
2024-02-02T23:41:37.752Z,100.00
2024-02-02T23:44:07.365Z,100.00
2024-02-02T23:46:37.388Z,100.00
2024-02-02T23:49:07.477Z,100.00
2024-02-02T23:51:37.190Z,100.00
2024-02-02T23:54:08.296Z,100.00
2024-02-02T23:56:37.915Z,100.00
2024-02-02T23:59:07.068Z,100.00
